Time;durP1;ratioP1;P1;durP2;ratioP2;P2;SDS_P1;SDS_P2;PMS_P1;PMS_P2;Temp;Humidity;BMP_temperature;BMP_pressure;BME280_temperature;BME280_humidity;BME280_pressure;Samples;Min_cycle;Max_cycle;Signal;HPM_P1;HPM_P2
2022/04/21 00:00:44;;;;;;;9.37;6.50;;;;;;;;;;4974093;28;20178;-44
2022/04/21 00:03:10;;;;;;;11.60;6.87;;;;;;;;;;4971741;28;20172;-44
2022/04/21 00:05:36;;;;;;;9.63;6.00;;;;;;;;;;4975262;28;20402;-44
2022/04/21 00:08:03;;;;;;;11.97;6.37;;;;;;;;;;4969837;28;20174;-44
2022/04/21 00:10:29;;;;;;;9.80;6.57;;;;;;;;;;4977459;28;20174;-44
2022/04/21 00:12:55;;;;;;;8.90;6.20;;;;;;;;;;4976249;28;20447;-44
2022/04/21 00:15:22;;;;;;;9.13;6.33;;;;;;;;;;4973897;28;20173;-46
2022/04/21 00:17:48;;;;;;;10.83;6.53;;;;;;;;;;4971629;28;20182;-44
2022/04/21 00:20:15;;;;;;;8.90;6.30;;;;;;;;;;4973445;28;21102;-44
2022/04/21 00:25:29;;;;;;;10.20;6.77;;;;;;;;;;4971345;28;20310;-45
2022/04/21 00:27:55;;;;;;;15.00;7.17;;;;;;;;;;4975932;28;20369;-44
2022/04/21 00:30:21;;;;;;;10.13;6.50;;;;;;;;;;4974339;28;20185;-45
2022/04/21 00:32:48;;;;;;;7.17;5.83;;;;;;;;;;4971194;28;20204;-45
2022/04/21 00:35:15;;;;;;;10.83;7.00;;;;;;;;;;4976368;28;20589;-45
2022/04/21 00:37:44;;;;;;;11.93;7.17;;;;;;;;;;4974029;28;20506;-44
2022/04/21 00:40:11;;;;;;;11.47;7.20;;;;;;;;;;4973168;28;20418;-44
2022/04/21 00:42:37;;;;;;;12.13;7.07;;;;;;;;;;4973917;28;20197;-44
2022/04/21 00:45:03;;;;;;;9.80;7.03;;;;;;;;;;4976099;28;20581;-45
2022/04/21 00:47:30;;;;;;;14.37;7.70;;;;;;;;;;4972202;28;20174;-44
2022/04/21 00:49:56;;;;;;;13.67;7.03;;;;;;;;;;4973429;28;20258;-44
2022/04/21 00:52:23;;;;;;;12.90;7.47;;;;;;;;;;4971151;28;20295;-44
2022/04/21 00:54:49;;;;;;;10.07;7.37;;;;;;;;;;4972435;28;20495;-45
2022/04/21 00:57:16;;;;;;;10.17;7.53;;;;;;;;;;4971494;28;20177;-45
2022/04/21 00:59:43;;;;;;;12.03;7.60;;;;;;;;;;4973576;28;20181;-44
2022/04/21 01:04:54;;;;;;;11.07;8.60;;;;;;;;;;4972957;28;20234;-44
2022/04/21 01:07:21;;;;;;;10.93;7.97;;;;;;;;;;4972054;28;20388;-44
2022/04/21 01:09:47;;;;;;;11.33;8.33;;;;;;;;;;4977366;28;20444;-45
2022/04/21 01:12:14;;;;;;;12.33;8.97;;;;;;;;;;4975171;28;20185;-44
2022/04/21 01:14:40;;;;;;;13.23;9.37;;;;;;;;;;4972124;28;21526;-44
2022/04/21 01:17:07;;;;;;;13.80;8.60;;;;;;;;;;4980618;28;20412;-43
2022/04/21 01:19:33;;;;;;;14.43;9.50;;;;;;;;;;4977316;28;20604;-44
2022/04/21 01:21:59;;;;;;;10.40;8.27;;;;;;;;;;4974580;28;20631;-44
2022/04/21 01:24:26;;;;;;;14.73;8.60;;;;;;;;;;4972674;28;20184;-44
2022/04/21 01:26:53;;;;;;;13.53;8.53;;;;;;;;;;4975945;28;20191;-45
2022/04/21 01:29:19;;;;;;;13.43;8.27;;;;;;;;;;4974629;28;20574;-44
2022/04/21 01:31:45;;;;;;;10.17;7.40;;;;;;;;;;4973183;28;20525;-45
2022/04/21 01:34:11;;;;;;;12.33;7.50;;;;;;;;;;4978288;28;20215;-44
2022/04/21 01:42:12;;;;;;;11.73;6.90;;;;;;;;;;4975973;28;20208;-43
2022/04/21 01:44:38;;;;;;;11.60;6.90;;;;;;;;;;4978128;28;20442;-44
2022/04/21 01:47:05;;;;;;;12.63;7.10;;;;;;;;;;4975160;28;20497;-45
2022/04/21 01:49:31;;;;;;;10.30;5.93;;;;;;;;;;4974063;28;20483;-44
2022/04/21 01:51:57;;;;;;;11.47;6.60;;;;;;;;;;4977790;28;20284;-44
2022/04/21 01:54:23;;;;;;;8.20;6.40;;;;;;;;;;4981105;28;20238;-44
2022/04/21 01:56:49;;;;;;;7.60;5.87;;;;;;;;;;4978128;28;20176;-44
2022/04/21 01:59:16;;;;;;;7.77;5.40;;;;;;;;;;4977447;28;20173;-44
2022/04/21 02:01:42;;;;;;;8.67;6.07;;;;;;;;;;4977327;28;20177;-45
2022/04/21 02:04:08;;;;;;;12.73;6.20;;;;;;;;;;4974457;28;20182;-44
2022/04/21 02:06:34;;;;;;;8.80;6.03;;;;;;;;;;4973504;28;20193;-44
2022/04/21 02:09:00;;;;;;;10.17;6.43;;;;;;;;;;5004237;28;20282;-44
2022/04/21 02:11:28;;;;;;;9.70;5.93;;;;;;;;;;4972126;28;20181;-45
2022/04/21 02:13:54;;;;;;;10.00;6.57;;;;;;;;;;4972194;28;20193;-45
2022/04/21 02:16:20;;;;;;;8.63;6.07;;;;;;;;;;4979214;28;20200;-44
2022/04/21 02:18:47;;;;;;;9.27;6.10;;;;;;;;;;4977624;28;20299;-45
2022/04/21 02:21:13;;;;;;;10.30;6.20;;;;;;;;;;4975092;28;20868;-44
2022/04/21 02:23:39;;;;;;;9.60;5.97;;;;;;;;;;4974633;28;20339;-44
2022/04/21 02:26:05;;;;;;;10.53;6.40;;;;;;;;;;4974104;28;20964;-44
2022/04/21 02:28:31;;;;;;;10.80;6.00;;;;;;;;;;4978670;28;20182;-44
2022/04/21 02:30:57;;;;;;;8.43;6.37;;;;;;;;;;4972134;28;20272;-44
2022/04/21 02:33:24;;;;;;;7.33;5.93;;;;;;;;;;4975982;28;20193;-44
2022/04/21 02:35:50;;;;;;;8.90;5.83;;;;;;;;;;4976728;28;20753;-44
2022/04/21 02:38:16;;;;;;;9.77;6.90;;;;;;;;;;4976258;28;20185;-44
2022/04/21 02:40:43;;;;;;;10.87;7.50;;;;;;;;;;4976534;28;20181;-43
2022/04/21 02:43:09;;;;;;;9.10;5.97;;;;;;;;;;4971983;28;20287;-45
2022/04/21 02:45:38;;;;;;;8.37;6.17;;;;;;;;;;4988951;28;20704;-45
2022/04/21 02:48:05;;;;;;;9.37;6.37;;;;;;;;;;4977770;28;20184;-45
2022/04/21 02:50:32;;;;;;;10.87;6.87;;;;;;;;;;4973519;28;20481;-45
2022/04/21 02:52:58;;;;;;;7.90;6.30;;;;;;;;;;4972698;28;20603;-44
2022/04/21 02:58:09;;;;;;;9.33;6.30;;;;;;;;;;4972105;28;20254;-44
2022/04/21 03:00:35;;;;;;;8.43;6.30;;;;;;;;;;4971282;28;20188;-44
2022/04/21 03:03:01;;;;;;;11.00;7.37;;;;;;;;;;4976047;28;21120;-44
2022/04/21 03:05:28;;;;;;;8.27;6.00;;;;;;;;;;4976767;28;20184;-44
2022/04/21 03:07:54;;;;;;;7.90;6.83;;;;;;;;;;4972124;28;20576;-44
2022/04/21 03:10:21;;;;;;;8.73;6.90;;;;;;;;;;4974604;28;20574;-43
2022/04/21 03:12:47;;;;;;;10.10;7.70;;;;;;;;;;4975739;28;20181;-42
2022/04/21 03:15:13;;;;;;;11.60;7.10;;;;;;;;;;4975552;28;20212;-40
2022/04/21 03:17:40;;;;;;;10.20;7.60;;;;;;;;;;4969496;28;21547;-36
2022/04/21 03:20:06;;;;;;;11.77;8.13;;;;;;;;;;4976731;28;20181;-38
2022/04/21 03:25:18;;;;;;;15.23;9.07;;;;;;;;;;4973271;28;20629;-36
2022/04/21 03:27:47;;;;;;;9.57;8.30;;;;;;;;;;4972535;28;20773;-36
2022/04/21 03:30:13;;;;;;;11.30;8.40;;;;;;;;;;4975963;28;20239;-39
2022/04/21 03:32:40;;;;;;;11.00;7.90;;;;;;;;;;4976610;28;20188;-38
2022/04/21 03:35:06;;;;;;;11.77;9.63;;;;;;;;;;4973708;28;20202;-38
2022/04/21 03:37:33;;;;;;;12.90;9.27;;;;;;;;;;4975826;28;20388;-36
2022/04/21 03:39:59;;;;;;;12.10;8.93;;;;;;;;;;4969488;28;20193;-36
2022/04/21 03:42:31;;;;;;;11.27;8.20;;;;;;;;;;4971636;28;20251;-39
2022/04/21 03:44:58;;;;;;;13.63;8.17;;;;;;;;;;4974497;28;20599;-37
2022/04/21 03:47:24;;;;;;;11.30;8.90;;;;;;;;;;4971870;28;20274;-37
2022/04/21 03:49:50;;;;;;;12.57;9.13;;;;;;;;;;4976243;28;20668;-37
2022/04/21 03:52:19;;;;;;;12.60;9.83;;;;;;;;;;4974892;28;20505;-37
2022/04/21 03:54:45;;;;;;;14.23;9.67;;;;;;;;;;4976800;28;20196;-39
2022/04/21 03:57:12;;;;;;;13.67;10.83;;;;;;;;;;4974067;28;20283;-39
2022/04/21 03:59:38;;;;;;;14.20;10.83;;;;;;;;;;4973895;28;20636;-37
2022/04/21 04:02:05;;;;;;;10.33;9.20;;;;;;;;;;4973857;28;20893;-38
2022/04/21 04:04:31;;;;;;;13.13;10.77;;;;;;;;;;4977222;28;20751;-38
2022/04/21 04:12:34;;;;;;;13.57;10.33;;;;;;;;;;4973075;28;20855;-38
2022/04/21 04:15:01;;;;;;;16.40;11.87;;;;;;;;;;4984268;28;20940;-37
2022/04/21 04:17:28;;;;;;;13.27;10.60;;;;;;;;;;4974689;28;20560;-39
2022/04/21 04:19:54;;;;;;;12.33;10.23;;;;;;;;;;4975829;28;20801;-38
2022/04/21 04:22:20;;;;;;;12.40;11.10;;;;;;;;;;4972448;28;20660;-37
2022/04/21 04:24:46;;;;;;;10.30;9.30;;;;;;;;;;4973952;28;20606;-39
2022/04/21 04:27:12;;;;;;;14.20;11.77;;;;;;;;;;4969978;28;20775;-39
2022/04/21 04:29:39;;;;;;;14.10;11.90;;;;;;;;;;4975043;28;20696;-41
2022/04/21 04:32:05;;;;;;;13.77;10.93;;;;;;;;;;4972627;28;20690;-40
2022/04/21 04:34:31;;;;;;;16.60;12.40;;;;;;;;;;4977939;28;20205;-39
2022/04/21 04:36:57;;;;;;;12.23;10.93;;;;;;;;;;4971115;28;20189;-37
2022/04/21 04:39:23;;;;;;;15.83;12.00;;;;;;;;;;4970529;28;20581;-37
2022/04/21 04:44:35;;;;;;;12.43;10.93;;;;;;;;;;4976546;28;20223;-40
2022/04/21 04:47:01;;;;;;;14.73;12.60;;;;;;;;;;4967209;28;21110;-39
2022/04/21 04:49:27;;;;;;;15.53;11.70;;;;;;;;;;4970317;28;20181;-36
2022/04/21 04:51:53;;;;;;;14.10;12.53;;;;;;;;;;4973669;28;20180;-36
2022/04/21 04:54:19;;;;;;;17.30;13.37;;;;;;;;;;4971448;28;20762;-39
2022/04/21 04:56:46;;;;;;;16.67;12.77;;;;;;;;;;4970388;28;20181;-36
2022/04/21 04:59:13;;;;;;;15.33;11.73;;;;;;;;;;4973270;28;20636;-38
2022/04/21 05:01:42;;;;;;;15.90;12.40;;;;;;;;;;4972472;28;20166;-36
2022/04/21 05:04:12;;;;;;;16.00;13.40;;;;;;;;;;4972472;28;20208;-37
2022/04/21 05:06:39;;;;;;;13.77;11.67;;;;;;;;;;4969692;28;20699;-38
2022/04/21 05:09:06;;;;;;;16.27;11.37;;;;;;;;;;4967472;28;20185;-37
2022/04/21 05:11:33;;;;;;;15.47;12.67;;;;;;;;;;4971405;28;21032;-36
2022/04/21 05:13:59;;;;;;;16.17;11.80;;;;;;;;;;4971848;28;20547;-37
2022/04/21 05:16:25;;;;;;;14.00;11.03;;;;;;;;;;4971489;28;20316;-39
2022/04/21 05:18:52;;;;;;;12.03;10.73;;;;;;;;;;4976233;28;20251;-39
2022/04/21 05:21:18;;;;;;;11.53;10.33;;;;;;;;;;4971392;28;20602;-41
2022/04/21 05:23:49;;;;;;;13.10;10.97;;;;;;;;;;4972763;28;20652;-41
2022/04/21 05:26:18;;;;;;;15.53;11.33;;;;;;;;;;4967949;28;20173;-39
2022/04/21 05:28:45;;;;;;;16.03;12.07;;;;;;;;;;4970691;28;20486;-38
2022/04/21 05:31:11;;;;;;;15.30;11.63;;;;;;;;;;4971560;28;20185;-39
2022/04/21 05:33:38;;;;;;;12.53;10.93;;;;;;;;;;4972282;28;20225;-38
2022/04/21 05:36:05;;;;;;;16.37;12.07;;;;;;;;;;4977167;28;20733;-40
2022/04/21 05:38:31;;;;;;;16.20;12.73;;;;;;;;;;4976228;28;20179;-37
2022/04/21 05:40:58;;;;;;;15.17;13.13;;;;;;;;;;4972711;28;20173;-42
2022/04/21 05:43:30;;;;;;;17.10;11.97;;;;;;;;;;4991040;28;20181;-42
2022/04/21 05:45:56;;;;;;;14.00;11.07;;;;;;;;;;4975755;28;20173;-38
2022/04/21 05:48:22;;;;;;;17.20;13.50;;;;;;;;;;4977498;28;20494;-40
2022/04/21 05:50:53;;;;;;;16.37;14.67;;;;;;;;;;4970724;28;20843;-38
2022/04/21 05:53:23;;;;;;;17.57;14.30;;;;;;;;;;4969697;28;20342;-42
2022/04/21 05:55:50;;;;;;;18.20;14.37;;;;;;;;;;4979355;28;20192;-37
2022/04/21 05:58:16;;;;;;;18.20;14.50;;;;;;;;;;4977362;28;20584;-39
2022/04/21 06:00:42;;;;;;;19.87;14.63;;;;;;;;;;4980296;28;20748;-37
2022/04/21 06:03:18;;;;;;;15.40;12.33;;;;;;;;;;4982508;28;20247;-40
2022/04/21 06:05:44;;;;;;;16.50;14.30;;;;;;;;;;4980279;28;20166;-37
2022/04/21 06:08:10;;;;;;;17.40;13.37;;;;;;;;;;4978395;28;20170;-38
2022/04/21 06:10:36;;;;;;;16.00;12.93;;;;;;;;;;4973693;28;20353;-40
2022/04/21 06:13:03;;;;;;;14.83;11.70;;;;;;;;;;4977514;28;20182;-36
2022/04/21 06:15:33;;;;;;;16.77;13.37;;;;;;;;;;4979765;28;20281;-39
2022/04/21 06:17:59;;;;;;;14.67;11.90;;;;;;;;;;4975739;28;20173;-36
2022/04/21 06:20:28;;;;;;;18.13;11.97;;;;;;;;;;4975432;28;20169;-39
2022/04/21 06:22:55;;;;;;;15.87;12.77;;;;;;;;;;4974789;28;20595;-37
2022/04/21 06:25:21;;;;;;;17.17;13.10;;;;;;;;;;4978995;28;20253;-38
2022/04/21 06:27:48;;;;;;;14.73;11.83;;;;;;;;;;4976867;28;20887;-39
2022/04/21 06:30:14;;;;;;;14.40;11.73;;;;;;;;;;4977835;28;20176;-36
2022/04/21 06:32:40;;;;;;;14.77;12.23;;;;;;;;;;4980261;28;20631;-39
2022/04/21 06:35:06;;;;;;;12.87;11.43;;;;;;;;;;4971624;28;20208;-38
2022/04/21 06:37:34;;;;;;;16.00;12.33;;;;;;;;;;4974827;28;20414;-39
2022/04/21 06:40:00;;;;;;;14.07;12.40;;;;;;;;;;4977534;28;20181;-39
2022/04/21 06:42:26;;;;;;;13.47;10.47;;;;;;;;;;4977596;28;20849;-38
2022/04/21 06:50:22;;;;;;;18.10;11.27;;;;;;;;;;4981429;28;20179;-39
2022/04/21 06:52:48;;;;;;;14.30;11.93;;;;;;;;;;4974863;28;20657;-38
2022/04/21 06:55:14;;;;;;;13.43;10.73;;;;;;;;;;4976749;28;20514;-36
2022/04/21 06:57:40;;;;;;;14.07;11.50;;;;;;;;;;4980726;28;20367;-37
2022/04/21 07:00:07;;;;;;;12.60;10.77;;;;;;;;;;4980831;28;20481;-37
2022/04/21 07:02:37;;;;;;;14.43;10.80;;;;;;;;;;4984306;28;20386;-37
2022/04/21 07:05:07;;;;;;;12.73;11.33;;;;;;;;;;4978327;28;20580;-37
2022/04/21 07:07:34;;;;;;;15.33;10.63;;;;;;;;;;4977695;28;20566;-39
2022/04/21 07:10:00;;;;;;;16.87;11.83;;;;;;;;;;4980669;28;20343;-39
2022/04/21 07:12:30;;;;;;;15.47;11.37;;;;;;;;;;4975444;28;20647;-38
2022/04/21 07:14:59;;;;;;;13.77;11.23;;;;;;;;;;4974020;28;20208;-40
2022/04/21 07:17:26;;;;;;;17.17;12.13;;;;;;;;;;4978312;28;20309;-40
2022/04/21 07:19:52;;;;;;;19.87;12.63;;;;;;;;;;4981091;28;20183;-39
2022/04/21 07:22:21;;;;;;;14.77;11.53;;;;;;;;;;4973431;28;20204;-38
2022/04/21 07:24:50;;;;;;;14.67;11.93;;;;;;;;;;4975673;28;20223;-41
2022/04/21 07:27:16;;;;;;;17.90;12.63;;;;;;;;;;4982228;28;20659;-39
2022/04/21 07:29:42;;;;;;;20.37;14.07;;;;;;;;;;4981411;28;20625;-39
2022/04/21 07:32:09;;;;;;;14.67;11.70;;;;;;;;;;4979194;28;20538;-38
2022/04/21 07:34:35;;;;;;;14.83;12.23;;;;;;;;;;4977593;28;20658;-39
2022/04/21 07:37:01;;;;;;;15.67;12.77;;;;;;;;;;4976770;28;20668;-38
2022/04/21 07:39:28;;;;;;;19.17;13.70;;;;;;;;;;4977619;28;20359;-41
2022/04/21 07:41:57;;;;;;;14.97;12.23;;;;;;;;;;4976181;28;20185;-40
2022/04/21 07:44:23;;;;;;;18.17;13.27;;;;;;;;;;4976573;28;20178;-39
2022/04/21 07:46:49;;;;;;;18.63;12.73;;;;;;;;;;4980326;28;20619;-41
2022/04/21 07:54:45;;;;;;;15.70;12.43;;;;;;;;;;4974518;28;20328;-38
2022/04/21 07:57:11;;;;;;;17.67;12.97;;;;;;;;;;4977186;28;20425;-38
2022/04/21 07:59:37;;;;;;;18.17;12.83;;;;;;;;;;4978814;28;20814;-40
2022/04/21 08:02:06;;;;;;;18.23;13.10;;;;;;;;;;4976109;28;20180;-41
2022/04/21 08:04:32;;;;;;;18.23;14.43;;;;;;;;;;4977307;28;20660;-36
2022/04/21 08:06:59;;;;;;;15.50;12.77;;;;;;;;;;4977311;28;21394;-40
2022/04/21 08:09:25;;;;;;;17.13;12.97;;;;;;;;;;4977472;28;20184;-37
2022/04/21 08:11:51;;;;;;;16.87;13.77;;;;;;;;;;4975043;28;20545;-37
2022/04/21 08:14:17;;;;;;;17.43;14.40;;;;;;;;;;4978535;28;20298;-39
2022/04/21 08:16:44;;;;;;;20.43;15.40;;;;;;;;;;4978237;28;20329;-38
2022/04/21 08:19:13;;;;;;;17.33;13.20;;;;;;;;;;4974858;28;20212;-38
2022/04/21 08:21:39;;;;;;;17.93;15.10;;;;;;;;;;4975993;28;20181;-37
2022/04/21 08:35:05;;;;;;;19.70;16.63;;;;;;;;;;4972841;28;20957;-38
2022/04/21 08:37:34;;;;;;;16.97;15.13;;;;;;;;;;4974758;28;20200;-38
2022/04/21 08:40:04;;;;;;;21.87;15.93;;;;;;;;;;4974863;28;20178;-36
2022/04/21 08:42:31;;;;;;;21.27;17.10;;;;;;;;;;4980063;28;20173;-37
2022/04/21 08:45:00;;;;;;;17.47;15.40;;;;;;;;;;4970832;28;20428;-37
2022/04/21 08:47:28;;;;;;;17.50;15.30;;;;;;;;;;4967158;28;20177;-37
2022/04/21 08:49:58;;;;;;;20.93;16.37;;;;;;;;;;4969008;28;21491;-40
2022/04/21 08:52:24;;;;;;;21.23;16.27;;;;;;;;;;4976121;28;20247;-39
2022/04/21 08:54:50;;;;;;;25.33;17.33;;;;;;;;;;4976504;28;20201;-41
2022/04/21 08:57:16;;;;;;;19.17;15.53;;;;;;;;;;4975636;28;20169;-39
2022/04/21 08:59:43;;;;;;;21.37;17.17;;;;;;;;;;4979732;28;20403;-38
2022/04/21 09:02:09;;;;;;;21.20;15.67;;;;;;;;;;4981681;28;20380;-37
2022/04/21 09:04:35;;;;;;;23.23;17.90;;;;;;;;;;4977688;28;20185;-38
2022/04/21 09:07:18;;;;;;;20.43;17.77;;;;;;;;;;4974178;28;20193;-38
2022/04/21 09:10:03;;;;;;;24.30;18.67;;;;;;;;;;4977403;28;20939;-38
2022/04/21 09:12:29;;;;;;;24.10;18.57;;;;;;;;;;4977369;28;20554;-41
2022/04/21 09:14:57;;;;;;;21.30;17.07;;;;;;;;;;4974480;28;20669;-37
2022/04/21 09:17:23;;;;;;;21.20;17.87;;;;;;;;;;4976749;28;20721;-38
2022/04/21 09:19:59;;;;;;;18.07;15.47;;;;;;;;;;4978529;28;20169;-39
2022/04/21 09:22:25;;;;;;;21.37;16.77;;;;;;;;;;4977078;28;20839;-38
2022/04/21 09:24:53;;;;;;;16.40;13.23;;;;;;;;;;4974283;28;20176;-41
2022/04/21 09:27:19;;;;;;;19.73;16.47;;;;;;;;;;4975380;28;20921;-41
2022/04/21 09:29:45;;;;;;;20.57;16.37;;;;;;;;;;4982470;28;20561;-40
2022/04/21 09:32:15;;;;;;;16.77;14.27;;;;;;;;;;4980865;28;20173;-40
2022/04/21 09:34:48;;;;;;;20.43;13.23;;;;;;;;;;4981294;28;20823;-37
2022/04/21 09:37:18;;;;;;;19.03;13.53;;;;;;;;;;4981075;28;20428;-38
2022/04/21 09:39:49;;;;;;;17.70;15.20;;;;;;;;;;4982339;28;20234;-41
2022/04/21 09:42:23;;;;;;;17.93;12.97;;;;;;;;;;4978977;28;20825;-41
2022/04/21 09:47:34;;;;;;;18.00;14.47;;;;;;;;;;4983360;28;20580;-40
2022/04/21 09:50:20;;;;;;;17.10;12.83;;;;;;;;;;4981734;28;20176;-41
2022/04/21 09:52:50;;;;;;;17.47;13.97;;;;;;;;;;4980773;28;20559;-41
2022/04/21 09:55:26;;;;;;;17.03;12.90;;;;;;;;;;4975937;28;20270;-41
2022/04/21 09:57:53;;;;;;;18.83;14.03;;;;;;;;;;4978705;28;20176;-40
2022/04/21 10:00:24;;;;;;;19.13;13.47;;;;;;;;;;4979557;28;20333;-41
2022/04/21 10:02:51;;;;;;;15.33;13.60;;;;;;;;;;4977973;28;20180;-41
2022/04/21 10:05:17;;;;;;;17.13;14.30;;;;;;;;;;4979543;28;21209;-41
2022/04/21 10:07:45;;;;;;;16.67;14.73;;;;;;;;;;4978194;28;20420;-41
2022/04/21 10:10:11;;;;;;;17.03;12.70;;;;;;;;;;4979811;28;20618;-41
2022/04/21 10:12:38;;;;;;;15.70;14.00;;;;;;;;;;4977366;28;20471;-43
2022/04/21 10:15:04;;;;;;;14.53;13.00;;;;;;;;;;4980676;28;20288;-41
2022/04/21 10:17:30;;;;;;;15.70;14.00;;;;;;;;;;4981756;28;20172;-43
2022/04/21 10:19:56;;;;;;;19.10;16.67;;;;;;;;;;4983383;28;20954;-42
2022/04/21 10:22:23;;;;;;;20.93;16.20;;;;;;;;;;4979718;28;21032;-42
2022/04/21 10:24:49;;;;;;;18.83;14.87;;;;;;;;;;4979834;28;20216;-43
2022/04/21 10:27:38;;;;;;;18.17;16.20;;;;;;;;;;4981808;28;20640;-42
2022/04/21 10:30:26;;;;;;;22.40;18.30;;;;;;;;;;4976330;28;20275;-42
2022/04/21 10:32:53;;;;;;;18.07;16.20;;;;;;;;;;4978866;28;20247;-41
2022/04/21 10:35:19;;;;;;;18.50;16.50;;;;;;;;;;5012667;28;20198;-41
2022/04/21 10:37:46;;;;;;;21.00;17.30;;;;;;;;;;4979649;28;20391;-42
2022/04/21 10:40:18;;;;;;;22.03;18.60;;;;;;;;;;4977704;28;20625;-41
2022/04/21 10:42:55;;;;;;;22.30;18.30;;;;;;;;;;5007168;28;20319;-41
2022/04/21 10:45:25;;;;;;;20.17;17.93;;;;;;;;;;4979325;28;20258;-42
2022/04/21 10:48:08;;;;;;;19.93;16.73;;;;;;;;;;4977805;28;20268;-42
2022/04/21 10:50:35;;;;;;;19.53;16.67;;;;;;;;;;4980453;28;20764;-41
2022/04/21 10:58:34;;;;;;;19.70;15.87;;;;;;;;;;4983086;28;20239;-43
2022/04/21 11:01:14;;;;;;;18.73;16.43;;;;;;;;;;4980071;28;20207;-43
2022/04/21 11:03:41;;;;;;;21.37;16.97;;;;;;;;;;4979857;28;20409;-43
2022/04/21 11:06:07;;;;;;;20.90;16.73;;;;;;;;;;4995744;28;20294;-43
2022/04/21 11:08:34;;;;;;;21.53;17.07;;;;;;;;;;4976000;28;20173;-43
2022/04/21 11:11:00;;;;;;;21.23;17.50;;;;;;;;;;4980642;28;20178;-43
2022/04/21 11:13:43;;;;;;;21.50;16.87;;;;;;;;;;4977735;28;20177;-43
2022/04/21 11:16:09;;;;;;;27.23;18.43;;;;;;;;;;4977240;28;20192;-43
2022/04/21 11:18:36;;;;;;;25.03;19.10;;;;;;;;;;4980634;28;20168;-43
2022/04/21 11:21:22;;;;;;;24.90;18.73;;;;;;;;;;4982005;28;20759;-42
2022/04/21 11:23:48;;;;;;;27.80;20.47;;;;;;;;;;4974663;28;20262;-43
2022/04/21 11:26:14;;;;;;;30.10;21.47;;;;;;;;;;4977728;28;20692;-43
2022/04/21 11:28:45;;;;;;;25.27;19.57;;;;;;;;;;4978533;28;20600;-43
2022/04/21 11:31:11;;;;;;;20.97;16.67;;;;;;;;;;4981900;28;20190;-43
2022/04/21 11:33:39;;;;;;;26.50;16.87;;;;;;;;;;4979556;28;20192;-43
2022/04/21 11:36:06;;;;;;;26.63;17.93;;;;;;;;;;4978603;28;20808;-44
2022/04/21 11:38:33;;;;;;;21.90;17.10;;;;;;;;;;4976945;28;20499;-44
2022/04/21 11:41:05;;;;;;;22.40;18.00;;;;;;;;;;4978901;28;20236;-44
2022/04/21 11:43:31;;;;;;;22.50;17.13;;;;;;;;;;4976132;28;20181;-44
2022/04/21 11:45:59;;;;;;;22.80;17.23;;;;;;;;;;4974650;28;20173;-44
2022/04/21 11:48:43;;;;;;;20.93;15.87;;;;;;;;;;4979587;28;20180;-44
2022/04/21 11:51:10;;;;;;;19.93;17.30;;;;;;;;;;4975616;28;20173;-44
2022/04/21 11:53:43;;;;;;;23.63;17.77;;;;;;;;;;4976880;28;20174;-44
2022/04/21 11:56:10;;;;;;;22.30;17.33;;;;;;;;;;4978977;28;20173;-44
2022/04/21 11:58:37;;;;;;;22.87;17.20;;;;;;;;;;4977581;28;20168;-44
2022/04/21 12:06:57;;;;;;;19.20;15.27;;;;;;;;;;4976668;28;20618;-44
2022/04/21 12:09:25;;;;;;;19.40;13.43;;;;;;;;;;4980169;28;20566;-42
2022/04/21 12:11:54;;;;;;;19.40;12.40;;;;;;;;;;4977658;28;20836;-44
2022/04/21 12:14:20;;;;;;;15.33;10.40;;;;;;;;;;4978654;28;20235;-44
2022/04/21 12:16:47;;;;;;;15.37;10.37;;;;;;;;;;4974414;28;20192;-44
2022/04/21 12:19:14;;;;;;;13.27;10.17;;;;;;;;;;4976209;28;20671;-45
2022/04/21 12:21:40;;;;;;;14.27;9.67;;;;;;;;;;4979803;28;20276;-44
2022/04/21 12:24:15;;;;;;;11.93;8.40;;;;;;;;;;4978489;28;20173;-44
2022/04/21 12:27:07;;;;;;;10.47;8.60;;;;;;;;;;4976224;28;20578;-44
2022/04/21 12:29:45;;;;;;;14.03;9.67;;;;;;;;;;4963485;28;20220;-45
2022/04/21 12:32:11;;;;;;;12.63;8.70;;;;;;;;;;4979993;28;21069;-44
2022/04/21 12:34:40;;;;;;;12.53;8.33;;;;;;;;;;4976314;28;20196;-42
2022/04/21 12:37:08;;;;;;;11.53;8.53;;;;;;;;;;4977565;28;20569;-44
2022/04/21 12:39:34;;;;;;;10.53;7.67;;;;;;;;;;4979322;28;20218;-44
2022/04/21 12:42:03;;;;;;;9.50;8.17;;;;;;;;;;4978017;28;20854;-45
2022/04/21 12:44:29;;;;;;;11.00;7.67;;;;;;;;;;4977123;28;20744;-44
2022/04/21 12:46:58;;;;;;;11.93;7.40;;;;;;;;;;4978892;28;20344;-44
2022/04/21 12:49:43;;;;;;;8.77;6.57;;;;;;;;;;4976478;28;20184;-44
2022/04/21 12:52:09;;;;;;;11.67;7.53;;;;;;;;;;4976245;28;20169;-42
2022/04/21 12:54:35;;;;;;;11.03;8.30;;;;;;;;;;4977596;28;20755;-38
2022/04/21 12:57:02;;;;;;;12.43;9.03;;;;;;;;;;4983558;28;20187;-40
2022/04/21 12:59:28;;;;;;;10.83;8.93;;;;;;;;;;4980468;28;20424;-40
2022/04/21 13:01:54;;;;;;;14.70;9.83;;;;;;;;;;4982248;28;20379;-40
2022/04/21 13:04:20;;;;;;;12.87;9.73;;;;;;;;;;4980254;28;20449;-37
2022/04/21 13:06:46;;;;;;;13.53;9.50;;;;;;;;;;4980361;28;20443;-37
2022/04/21 13:09:12;;;;;;;16.03;12.03;;;;;;;;;;4982848;28;20174;-39
2022/04/21 13:11:38;;;;;;;13.47;11.27;;;;;;;;;;4980961;28;20188;-39
2022/04/21 13:14:05;;;;;;;11.73;9.93;;;;;;;;;;4980020;28;20203;-38
2022/04/21 13:16:31;;;;;;;13.87;10.57;;;;;;;;;;4979078;28;20173;-38
2022/04/21 13:18:57;;;;;;;15.93;11.87;;;;;;;;;;4978277;28;20656;-38
2022/04/21 13:24:08;;;;;;;15.87;11.77;;;;;;;;;;4975692;28;20184;-36
2022/04/21 13:26:34;;;;;;;15.63;10.80;;;;;;;;;;4978610;28;20208;-37
2022/04/21 13:29:00;;;;;;;15.87;12.20;;;;;;;;;;4976145;28;20571;-38
2022/04/21 13:34:11;;;;;;;15.57;11.63;;;;;;;;;;4979340;28;20647;-37
2022/04/21 13:36:38;;;;;;;11.83;10.50;;;;;;;;;;4976342;28;20610;-37
2022/04/21 13:39:04;;;;;;;16.13;11.90;;;;;;;;;;4980777;28;20997;-37
2022/04/21 13:41:30;;;;;;;12.53;10.57;;;;;;;;;;4974730;28;20174;-40
2022/04/21 13:43:57;;;;;;;14.60;10.77;;;;;;;;;;4978534;28;20347;-39
2022/04/21 13:46:23;;;;;;;17.90;13.10;;;;;;;;;;4974515;28;20472;-39
2022/04/21 13:48:49;;;;;;;13.87;11.07;;;;;;;;;;4976361;28;20188;-40
2022/04/21 13:51:15;;;;;;;17.80;13.70;;;;;;;;;;4974426;28;20602;-40
2022/04/21 13:53:41;;;;;;;16.90;13.83;;;;;;;;;;4978374;28;20859;-38
2022/04/21 13:56:07;;;;;;;16.43;11.60;;;;;;;;;;4978147;28;20252;-38
2022/04/21 13:58:35;;;;;;;17.13;13.50;;;;;;;;;;4979112;28;20642;-36
2022/04/21 14:01:02;;;;;;;17.60;12.73;;;;;;;;;;4979753;28;20176;-37
2022/04/21 14:03:28;;;;;;;15.83;11.23;;;;;;;;;;4976971;28;20700;-38
2022/04/21 14:05:55;;;;;;;19.07;13.60;;;;;;;;;;4977820;28;20182;-39
2022/04/21 14:08:21;;;;;;;16.87;13.87;;;;;;;;;;4979417;28;20259;-39
2022/04/21 14:10:47;;;;;;;18.20;13.30;;;;;;;;;;4977825;28;20169;-40
2022/04/21 14:13:13;;;;;;;18.73;14.23;;;;;;;;;;4977068;28;20589;-39
2022/04/21 14:15:39;;;;;;;11.30;10.10;;;;;;;;;;4979852;28;20223;-41
2022/04/21 14:18:05;;;;;;;11.40;9.17;;;;;;;;;;4980747;28;20628;-37
2022/04/21 14:20:31;;;;;;;11.17;9.13;;;;;;;;;;4974936;28;20288;-36
2022/04/21 14:22:57;;;;;;;11.83;8.53;;;;;;;;;;4977667;28;20698;-41
2022/04/21 14:25:23;;;;;;;9.87;8.67;;;;;;;;;;4976552;28;20565;-37
2022/04/21 14:27:50;;;;;;;11.13;8.37;;;;;;;;;;4981182;28;20318;-38
2022/04/21 14:30:16;;;;;;;11.20;9.73;;;;;;;;;;4984252;28;20181;-38
2022/04/21 14:32:42;;;;;;;11.27;8.40;;;;;;;;;;4983110;28;20179;-36
2022/04/21 14:35:09;;;;;;;9.80;8.30;;;;;;;;;;4982410;28;20747;-39
2022/04/21 14:46:06;;;;;;;11.73;8.87;;;;;;;;;;4975942;28;21115;-37
2022/04/21 14:48:33;;;;;;;11.33;9.33;;;;;;;;;;4980715;28;20762;-42
2022/04/21 14:50:59;;;;;;;9.10;7.90;;;;;;;;;;4980661;28;20678;-37
2022/04/21 14:53:25;;;;;;;8.90;7.70;;;;;;;;;;4978481;28;20546;-37
2022/04/21 14:55:52;;;;;;;10.93;8.50;;;;;;;;;;4976330;28;21029;-38
2022/04/21 14:58:19;;;;;;;11.97;9.00;;;;;;;;;;4978167;28;20181;-38
2022/04/21 15:00:45;;;;;;;10.43;8.77;;;;;;;;;;4979340;28;20998;-39
2022/04/21 15:03:15;;;;;;;10.33;8.73;;;;;;;;;;4979974;28;20211;-40
2022/04/21 15:05:42;;;;;;;9.30;7.53;;;;;;;;;;4982669;28;20724;-38
2022/04/21 15:08:09;;;;;;;7.50;6.80;;;;;;;;;;4978853;28;20221;-41
2022/04/21 15:10:37;;;;;;;8.40;7.20;;;;;;;;;;4980637;28;20294;-40
2022/04/21 15:13:04;;;;;;;13.23;8.70;;;;;;;;;;4980868;28;20274;-42
2022/04/21 15:15:30;;;;;;;11.07;8.00;;;;;;;;;;4981595;28;20483;-37
2022/04/21 15:17:56;;;;;;;10.73;8.60;;;;;;;;;;4979108;28;20717;-39
2022/04/21 15:20:23;;;;;;;9.77;8.10;;;;;;;;;;4976829;28;20605;-38
2022/04/21 15:22:49;;;;;;;13.20;8.83;;;;;;;;;;4974670;28;20217;-37
2022/04/21 15:25:15;;;;;;;11.87;9.23;;;;;;;;;;4979487;28;20659;-36
2022/04/21 15:27:41;;;;;;;10.90;9.80;;;;;;;;;;4982215;28;20372;-37
2022/04/21 15:30:07;;;;;;;9.23;8.23;;;;;;;;;;4979688;28;20616;-37
2022/04/21 15:32:33;;;;;;;11.10;9.93;;;;;;;;;;4980063;28;20177;-38
2022/04/21 15:35:00;;;;;;;11.93;10.63;;;;;;;;;;4978965;28;20205;-38
2022/04/21 15:37:26;;;;;;;13.10;10.40;;;;;;;;;;4979784;28;20466;-39
2022/04/21 15:39:52;;;;;;;10.80;8.73;;;;;;;;;;4980622;28;20181;-37